Dades meteomassalio
Diari Summary for Juliol 16, 2017 Units:  English    Metric   Both
« Previous Day
Next Day »
Diari Semanal Mensual Anual Personalitzat
  Maxima: Minima: Mijana:
Temperatura: TemperatureC °F 17.4 °F 26.8 °F
Rosada: DewpointC °F 12.4 °F 15.4 °F
Humitat: Humidity % 32 % 52 %
Velocitat del vent: WindSpeedKMH mph 0.0 mph 6.9 mph
Racha vent: WindSpeedGustKMH mph - -
Vent:- - ESE
Pressio: PressurehPa in 1014.8 in -
Pluja: 0.0 in    
Historical Graphs
 
 
Tabular Data for Juliol 16, 2017
Time Temperature Dew Point Pressure Wind Wind Speed Wind Gust Humidity Rainfall Rate (Hourly) solar Conditions
TemperatureC °F DewpointC °F PressurehPa in Calm     Humidity % HourlyPrecipMM in SolarRadiationWatts/m^2 W/m2 Conditions
00:02 24.2 °F 15.9 °F 1017.5 in Calm     60 % 0.0 in 0.0 W/m2 CLR
00:07 24.1 °F 15.8 °F 1017.5 in Calm     60 % 0.0 in 0.0 W/m2 CLR
00:12 24.0 °F 16.0 °F 1017.5 in Calm     61 % 0.0 in 0.0 W/m2 CLR
00:17 23.9 °F 16.2 °F 1017.5 in Calm     62 % 0.0 in 0.0 W/m2 CLR
00:22 23.8 °F 16.1 °F 1017.5 in Calm     62 % 0.0 in 0.0 W/m2 CLR
00:27 23.7 °F 15.9 °F 1017.5 in Calm     62 % 0.0 in 0.0 W/m2 CLR
00:32 23.6 °F 16.1 °F 1017.8 in Calm     63 % 0.0 in 0.0 W/m2 CLR
00:37 23.4 °F 15.9 °F 1017.8 in Calm     63 % 0.0 in 0.0 W/m2 CLR
00:42 23.3 °F 16.1 °F 1017.8 in Calm     64 % 0.0 in 0.0 W/m2 CLR
00:47 23.3 °F 16.1 °F 1017.8 in Calm     64 % 0.0 in 0.0 W/m2 CLR
00:52 23.3 °F 16.1 °F 1017.8 in Calm     64 % 0.0 in 0.0 W/m2 CLR
00:57 23.2 °F 16.3 °F 1017.8 in Calm     65 % 0.0 in 0.0 W/m2 CLR
01:02 23.2 °F 16.1 °F 1017.8 in Calm     64 % 0.0 in 0.0 W/m2 CLR
01:07 23.2 °F 16.2 °F 1017.8 in Calm     65 % 0.0 in 0.0 W/m2 CLR
01:12 23.1 °F 16.2 °F 1017.8 in Calm     65 % 0.0 in 0.0 W/m2 CLR
01:17 23.0 °F 16.3 °F 1018.2 in Calm     66 % 0.0 in 0.0 W/m2 CLR
01:22 22.9 °F 16.2 °F 1018.2 in Calm     66 % 0.0 in 0.0 W/m2 CLR
01:27 22.8 °F 16.2 °F 1018.2 in Calm     66 % 0.0 in 0.0 W/m2 CLR
01:32 22.8 °F 16.1 °F 1018.2 in Calm     66 % 0.0 in 0.0 W/m2 CLR
01:37 22.7 °F 16.0 °F 1018.2 in Calm     66 % 0.0 in 0.0 W/m2 CLR
01:42 22.6 °F 15.9 °F 1018.2 in Calm     66 % 0.0 in 0.0 W/m2 CLR
01:47 22.6 °F 15.9 °F 1018.2 in Calm     66 % 0.0 in 0.0 W/m2 CLR
01:52 22.4 °F 15.8 °F 1018.2 in Calm     66 % 0.0 in 0.0 W/m2 CLR
01:57 22.3 °F 15.7 °F 1018.2 in Calm     66 % 0.0 in 0.0 W/m2 CLR
02:02 22.2 °F 15.6 °F 1018.2 in Calm     66 % 0.0 in 0.0 W/m2 CLR
02:07 22.2 °F 15.3 °F 1018.2 in Calm     65 % 0.0 in 0.0 W/m2 CLR
02:12 22.2 °F 15.3 °F 1018.2 in Calm     65 % 0.0 in 0.0 W/m2 CLR
02:17 22.3 °F 15.4 °F 1018.2 in Calm     65 % 0.0 in 0.0 W/m2 CLR
02:22 22.2 °F 15.3 °F 1018.5 in Calm     65 % 0.0 in 0.0 W/m2 CLR
02:27 21.9 °F 15.3 °F 1018.5 in Calm     66 % 0.0 in 0.0 W/m2 CLR
02:32 21.7 °F 15.6 °F 1018.5 in Calm     68 % 0.0 in 0.0 W/m2 CLR
02:37 21.6 °F 15.2 °F 1018.5 in Calm     67 % 0.0 in 0.0 W/m2 CLR
02:42 21.6 °F 14.7 °F 1018.5 in Calm     65 % 0.0 in 0.0 W/m2 CLR
02:47 21.6 °F 15.0 °F 1018.5 in Calm     66 % 0.0 in 0.0 W/m2 CLR
02:52 21.6 °F 15.2 °F 1018.5 in Calm     67 % 0.0 in 0.0 W/m2 CLR
02:57 21.4 °F 15.0 °F 1018.5 in Calm     67 % 0.0 in 0.0 W/m2 CLR
03:02 21.3 °F 15.1 °F 1018.5 in Calm     68 % 0.0 in 0.0 W/m2 CLR
03:07 21.1 °F 14.7 °F 1018.5 in Calm     67 % 0.0 in 0.0 W/m2 CLR
03:12 21.1 °F 14.9 °F 1018.5 in Calm     68 % 0.0 in 0.0 W/m2 CLR
03:17 20.9 °F 14.1 °F 1018.5 in Calm     65 % 0.0 in 0.0 W/m2 CLR
03:22 20.9 °F 14.6 °F 1018.5 in Calm     67 % 0.0 in 0.0 W/m2 CLR
03:27 20.8 °F 14.0 °F 1018.8 in Calm     65 % 0.0 in 0.0 W/m2 CLR
03:32 20.8 °F 14.2 °F 1018.8 in Calm     66 % 0.0 in 0.0 W/m2 CLR
03:37 20.6 °F 14.1 °F 1018.8 in Calm     66 % 0.0 in 0.0 W/m2 CLR
03:42 20.5 °F 13.9 °F 1018.8 in Calm     66 % 0.0 in 0.0 W/m2 CLR
03:47 20.4 °F 14.1 °F 1018.8 in Calm     67 % 0.0 in 0.0 W/m2 CLR
03:52 20.3 °F 13.7 °F 1018.8 in Calm     66 % 0.0 in 0.0 W/m2 CLR
03:57 20.2 °F 13.9 °F 1018.8 in Calm     67 % 0.0 in 0.0 W/m2 CLR
04:02 20.1 °F 13.7 °F 1018.8 in Calm     67 % 0.0 in 0.0 W/m2 CLR
04:07 19.9 °F 13.6 °F 1018.8 in Calm     67 % 0.0 in 0.0 W/m2 CLR
04:12 19.8 °F 13.7 °F 1018.5 in Calm     68 % 0.0 in 0.0 W/m2 CLR
04:17 19.7 °F 13.4 °F 1018.5 in Calm     67 % 0.0 in 0.0 W/m2 CLR
04:22 19.7 °F 13.6 °F 1018.5 in Calm     68 % 0.0 in 0.0 W/m2 CLR
04:27 19.6 °F 13.8 °F 1018.5 in Calm     69 % 0.0 in 0.0 W/m2 CLR
04:32 19.5 °F 13.7 °F 1018.5 in Calm     69 % 0.0 in 0.0 W/m2 CLR
04:37 19.4 °F 13.3 °F 1018.5 in Calm     68 % 0.0 in 0.0 W/m2 CLR
04:42 19.2 °F 13.2 °F 1018.5 in Calm     68 % 0.0 in 0.0 W/m2 CLR
04:47 19.1 °F 13.3 °F 1018.5 in Calm     69 % 0.0 in 0.0 W/m2 CLR
04:52 19.1 °F 13.2 °F 1018.5 in Calm     69 % 0.0 in 0.0 W/m2 CLR
04:57 19.1 °F 13.0 °F 1018.5 in Calm     68 % 0.0 in 0.0 W/m2 CLR
05:02 19.0 °F 12.9 °F 1018.5 in Calm     68 % 0.0 in 0.0 W/m2 CLR
05:07 19.0 °F 12.9 °F 1018.5 in Calm     68 % 0.0 in 0.0 W/m2 CLR
05:12 18.9 °F 12.9 °F 1018.5 in Calm     68 % 0.0 in 0.0 W/m2 CLR
05:17 18.9 °F 12.8 °F 1018.5 in Calm     68 % 0.0 in 0.0 W/m2 CLR
05:22 18.8 °F 13.0 °F 1018.5 in Calm     69 % 0.0 in 0.0 W/m2 CLR
05:27 18.8 °F 13.0 °F 1018.5 in Calm     69 % 0.0 in 0.0 W/m2 CLR
05:32 18.8 °F 13.2 °F 1018.5 in Calm     70 % 0.0 in 0.0 W/m2 CLR
05:37 18.6 °F 13.1 °F 1018.5 in Calm     70 % 0.0 in 0.0 W/m2 CLR
05:42 18.4 °F 12.7 °F 1018.5 in Calm     69 % 0.0 in 0.0 W/m2 CLR
05:48 18.4 °F 12.6 °F 1018.5 in Calm     69 % 0.0 in 0.0 W/m2 CLR
05:53 18.4 °F 12.8 °F 1018.5 in Calm     70 % 0.0 in 0.0 W/m2 CLR
05:58 18.3 °F 12.7 °F 1018.8 in Calm     70 % 0.0 in 0.0 W/m2 CLR
06:03 18.2 °F 12.9 °F 1018.8 in Calm     71 % 0.0 in 0.0 W/m2 CLR
06:08 18.1 °F 12.8 °F 1018.8 in Calm     71 % 0.0 in 0.0 W/m2 CLR
06:13 18.1 °F 12.9 °F 1018.8 in Calm     72 % 0.0 in 0.0 W/m2 CLR
06:18 18.0 °F 12.9 °F 1018.8 in Calm     72 % 0.0 in 0.0 W/m2 CLR
06:23 17.8 °F 12.9 °F 1018.8 in Calm     73 % 0.0 in 0.0 W/m2 CLR
06:28 17.7 °F 12.8 °F 1018.8 in Calm     73 % 0.0 in 0.0 W/m2 CLR
06:33 17.6 °F 12.7 °F 1018.8 in Calm     73 % 0.0 in 0.0 W/m2 OVC
06:38 17.6 °F 12.7 °F 1018.8 in Calm     73 % 0.0 in 0.0 W/m2 OVC
06:43 17.5 °F 12.4 °F 1018.8 in Calm     72 % 0.0 in 5.0 W/m2 OVC
06:48 17.4 °F 12.6 °F 1018.8 in Calm     73 % 0.0 in 7.0 W/m2 BKN
06:53 17.4 °F 12.5 °F 1019.2 in Calm     73 % 0.0 in 9.0 W/m2 BKN
06:58 17.4 °F 12.6 °F 1019.2 in Calm     73 % 0.0 in 12.0 W/m2 BKN
07:03 17.4 °F 12.6 °F 1019.2 in Calm     73 % 0.0 in 14.0 W/m2 BKN
07:08 17.4 °F 12.5 °F 1019.2 in Calm     73 % 0.0 in 18.0 W/m2 BKN
07:13 17.4 °F 12.5 °F 1019.2 in Calm     73 % 0.0 in 21.0 W/m2 BKN
07:18 17.4 °F 12.5 °F 1019.5 in Calm     73 % 0.0 in 26.0 W/m2 BKN
07:23 17.5 °F 12.6 °F 1019.5 in Calm     73 % 0.0 in 37.0 W/m2 BKN
07:28 17.7 °F 12.8 °F 1019.5 in Calm     73 % 0.0 in 46.0 W/m2 BKN
07:33 17.8 °F 12.9 °F 1019.5 in Calm     73 % 0.0 in 56.0 W/m2 SCT
07:38 18.0 °F 12.9 °F 1019.5 in Calm     72 % 0.0 in 67.0 W/m2 SCT
07:43 18.1 °F 12.8 °F 1019.5 in Calm     71 % 0.0 in 83.0 W/m2 FEW
07:48 18.3 °F 12.9 °F 1019.5 in Calm     71 % 0.0 in 97.0 W/m2 FEW
07:53 18.4 °F 12.8 °F 1019.5 in Calm     70 % 0.0 in 111.0 W/m2 CLR
07:58 18.7 °F 13.1 °F 1019.5 in Calm     70 % 0.0 in 127.0 W/m2 CLR
08:03 19.0 °F 13.2 °F 1019.5 in Calm     69 % 0.0 in 146.0 W/m2 CLR
08:08 19.3 °F 13.3 °F 1019.9 in Calm     68 % 0.0 in 163.0 W/m2 CLR
08:13 19.7 °F 13.4 °F 1019.9 in Calm     67 % 0.0 in 179.0 W/m2 CLR
08:18 20.1 °F 13.5 °F 1019.9 in Calm     66 % 0.0 in 197.0 W/m2 CLR
08:23 20.4 °F 13.8 °F 1019.9 in Calm     66 % 0.0 in 216.0 W/m2 CLR
08:28 20.7 °F 13.8 °F 1019.9 in Calm     65 % 0.0 in 230.0 W/m2 CLR
08:33 21.0 °F 14.2 °F 1019.9 in Calm     65 % 0.0 in 244.0 W/m2 CLR
08:38 21.4 °F 14.3 °F 1019.9 in Calm     64 % 0.0 in 258.0 W/m2 CLR
08:43 21.8 °F 14.7 °F 1019.5 in Calm     64 % 0.0 in 276.0 W/m2 CLR
08:48 22.1 °F 14.7 °F 1019.9 in Calm     63 % 0.0 in 290.0 W/m2 CLR
08:53 22.4 °F 15.0 °F 1019.9 in Calm     63 % 0.0 in 306.0 W/m2 CLR
08:58 22.8 °F 15.1 °F 1019.9 in Calm     62 % 0.0 in 320.0 W/m2 CLR
09:03 23.3 °F 15.1 °F 1019.9 in Calm     60 % 0.0 in 334.0 W/m2 CLR
09:08 23.6 °F 15.1 °F 1019.9 in Calm     59 % 0.0 in 353.0 W/m2 CLR
09:13 23.8 °F 15.1 °F 1019.9 in Calm     58 % 0.0 in 369.0 W/m2 CLR
09:18 24.2 °F 14.9 °F 1019.9 in Calm     56 % 0.0 in 385.0 W/m2 CLR
09:23 24.3 °F 14.7 °F 1019.9 in Calm     55 % 0.0 in 399.0 W/m2 CLR
09:28 24.3 °F 15.0 °F 1019.9 in Calm     56 % 0.0 in 417.0 W/m2 CLR
09:33 24.6 °F 15.2 °F 1019.9 in Calm     56 % 0.0 in 432.0 W/m2 CLR
09:38 24.8 °F 15.2 °F 1019.9 in Calm     55 % 0.0 in 446.0 W/m2 CLR
09:43 25.0 °F 15.3 °F 1019.9 in Calm     55 % 0.0 in 464.0 W/m2 CLR
09:48 25.4 °F 15.4 °F 1019.5 in Calm     54 % 0.0 in 478.0 W/m2 CLR
09:53 25.7 °F 15.1 °F 1019.5 in Calm     52 % 0.0 in 496.0 W/m2 CLR
09:58 25.7 °F 15.1 °F 1019.5 in Calm     52 % 0.0 in 508.0 W/m2 CLR
10:03 25.9 °F 15.0 °F 1019.5 in Calm     51 % 0.0 in 524.0 W/m2 CLR
10:08 26.1 °F 15.2 °F 1019.5 in Calm     51 % 0.0 in 538.0 W/m2 CLR
10:09 26.2 °F 15.2 °F 1019.5 in Calm     51 % 0.0 in 545.0 W/m2 CLR
10:14 26.3 °F 15.0 °F 1019.5 in ENE 5.6 mph 5.6 mph 50 % 0.0 in 559.0 W/m2 CLR
10:19 26.4 °F 15.1 °F 1019.5 in NE 5.6 mph 5.6 mph 50 % 0.0 in 573.0 W/m2 CLR
10:24 26.4 °F 15.5 °F 1019.5 in Calm     51 % 0.0 in 584.0 W/m2 CLR
10:29 26.5 °F 15.2 °F 1019.5 in SSE 7.4 mph 7.4 mph 50 % 0.0 in 601.0 W/m2 CLR
10:34 26.3 °F 15.0 °F 1019.5 in East 11.1 mph 11.1 mph 50 % 0.0 in 613.0 W/m2 CLR
10:39 26.3 °F 15.3 °F 1019.5 in NE 9.3 mph 9.3 mph 51 % 0.0 in 626.0 W/m2 CLR
10:44 26.6 °F 15.3 °F 1019.5 in ENE 5.6 mph   50 % 0.0 in 640.0 W/m2 CLR
10:49 26.7 °F 15.4 °F 1019.5 in NE 5.6 mph 5.6 mph 50 % 0.0 in 652.0 W/m2 CLR
10:54 26.7 °F 15.4 °F 1019.2 in East 9.7 mph 9.7 mph 50 % 0.0 in 666.0 W/m2 CLR
10:56 26.7 °F 15.4 °F 1019.2 in East 7.4 mph 7.4 mph 50 % 0.0 in 670.0 W/m2 CLR
11:01 26.6 °F 15.3 °F 1019.2 in East 9.3 mph 9.3 mph 50 % 0.0 in 684.0 W/m2 CLR
11:06 26.8 °F 15.5 °F 1019.2 in ESE 1.9 mph 1.9 mph 50 % 0.0 in 696.0 W/m2 CLR
11:11 27.2 °F 15.6 °F 1019.2 in ENE 7.4 mph 7.4 mph 49 % 0.0 in 707.0 W/m2 CLR
11:16 27.4 °F 15.7 °F 1019.2 in ENE 1.6 mph 1.6 mph 49 % 0.0 in 717.0 W/m2 CLR
11:21 27.5 °F 15.5 °F 1019.2 in East 1.9 mph 1.9 mph 48 % 0.0 in 729.0 W/m2 CLR
11:26 27.6 °F 15.2 °F 1019.2 in ENE 9.3 mph 9.3 mph 47 % 0.0 in 742.0 W/m2 CLR
11:31 27.9 °F 15.6 °F 1019.2 in ESE 3.7 mph   47 % 0.0 in 754.0 W/m2 CLR
11:36 28.0 °F 15.3 °F 1019.2 in Calm     46 % 0.0 in 763.0 W/m2 CLR
11:41 28.4 °F 15.3 °F 1018.8 in NE 5.6 mph   45 % 0.0 in 773.0 W/m2 CLR
11:46 28.6 °F 15.2 °F 1018.8 in Calm   0.2 mph 44 % 0.0 in 786.0 W/m2 CLR
11:51 28.6 °F 15.4 °F 1018.8 in North 3.2 mph 3.2 mph 45 % 0.0 in 793.0 W/m2 CLR
11:56 28.8 °F 15.7 °F 1018.8 in ENE 5.6 mph 5.6 mph 45 % 0.0 in 802.0 W/m2 CLR
12:01 28.8 °F 15.7 °F 1018.8 in ENE 5.6 mph 5.6 mph 45 % 0.0 in 810.0 W/m2 CLR
12:06 29.2 °F 15.7 °F 1018.8 in NE 3.7 mph 3.7 mph 44 % 0.0 in 819.0 W/m2 CLR
12:11 29.4 °F 15.9 °F 1018.8 in ENE 8.0 mph 8.0 mph 44 % 0.0 in 831.0 W/m2 CLR
12:16 29.5 °F 15.9 °F 1018.5 in ENE 13.0 mph 13.0 mph 44 % 0.0 in 837.0 W/m2 CLR
12:21 29.8 °F 15.8 °F 1018.5 in North 7.4 mph 7.4 mph 43 % 0.0 in 847.0 W/m2 CLR
12:26 29.9 °F 15.9 °F 1018.5 in ENE 5.6 mph 5.6 mph 43 % 0.0 in 853.0 W/m2 CLR
12:31 29.9 °F 16.0 °F 1018.5 in North 7.4 mph 7.4 mph 43 % 0.0 in 861.0 W/m2 CLR
12:36 30.1 °F 16.2 °F 1018.5 in NNW 9.3 mph 9.3 mph 43 % 0.0 in 868.0 W/m2 CLR
12:41 30.1 °F 16.2 °F 1018.5 in North 7.4 mph 7.4 mph 43 % 0.0 in 870.0 W/m2 CLR
12:46 30.4 °F 16.1 °F 1018.2 in NE 5.6 mph 5.6 mph 42 % 0.0 in 879.0 W/m2 CLR
12:51 30.7 °F 15.9 °F 1018.2 in East 14.8 mph 14.8 mph 41 % 0.0 in 882.0 W/m2 CLR
12:56 30.8 °F 16.1 °F 1018.2 in Calm     41 % 0.0 in 893.0 W/m2 CLR
13:01 30.9 °F 16.6 °F 1018.2 in ENE 9.7 mph 9.7 mph 42 % 0.0 in 895.0 W/m2 CLR
13:06 31.3 °F 16.1 °F 1018.2 in NNW 13.0 mph 13.0 mph 40 % 0.0 in 900.0 W/m2 CLR
13:11 31.3 °F 16.1 °F 1017.8 in NNE 9.3 mph 9.3 mph 40 % 0.0 in 905.0 W/m2 CLR
13:16 31.6 °F 16.4 °F 1017.8 in NE 9.3 mph 9.3 mph 40 % 0.0 in 911.0 W/m2 CLR
13:21 31.6 °F 16.4 °F 1017.8 in NE 3.7 mph 3.7 mph 40 % 0.0 in 914.0 W/m2 CLR
13:26 31.8 °F 16.1 °F 1017.8 in NNE 9.7 mph 9.7 mph 39 % 0.0 in 918.0 W/m2 CLR
13:31 31.8 °F 16.2 °F 1017.5 in ENE 9.3 mph 9.3 mph 39 % 0.0 in 918.0 W/m2 CLR
13:36 31.9 °F 16.3 °F 1017.5 in Calm     39 % 0.0 in 926.0 W/m2 CLR
13:41 32.3 °F 16.6 °F 1017.5 in NE 6.4 mph 6.4 mph 39 % 0.0 in 921.0 W/m2 CLR
13:46 32.7 °F 16.9 °F 1017.5 in NE 13.0 mph 13.0 mph 39 % 0.0 in 923.0 W/m2 CLR
13:51 32.9 °F 16.7 °F 1017.2 in NNE 1.6 mph   38 % 0.0 in 930.0 W/m2 CLR
13:56 33.0 °F 16.8 °F 1017.2 in NE 6.4 mph 6.4 mph 38 % 0.0 in 928.0 W/m2 CLR
14:01 33.2 °F 16.6 °F 1017.2 in ENE 1.9 mph 1.9 mph 37 % 0.0 in 926.0 W/m2 CLR
14:06 33.6 °F 16.9 °F 1016.8 in ENE 5.6 mph 5.6 mph 37 % 0.0 in 930.0 W/m2 CLR
14:11 33.8 °F 16.6 °F 1016.8 in ENE 7.4 mph   36 % 0.0 in 930.0 W/m2 CLR
14:16 33.9 °F 17.2 °F 1016.8 in ENE 14.8 mph 14.8 mph 37 % 0.0 in 923.0 W/m2 CLR
14:17 33.9 °F 17.2 °F 1016.8 in ENE 14.8 mph 14.8 mph 37 % 0.0 in 923.0 W/m2 CLR
14:22 33.9 °F 17.2 °F 1016.8 in ENE 14.8 mph 14.8 mph 37 % 0.0 in 923.0 W/m2 CLR
14:27 33.8 °F 16.7 °F 1016.8 in ENE 11.1 mph   36 % 0.0 in 923.0 W/m2 CLR
14:32 34.1 °F 16.4 °F 1016.8 in East 7.4 mph 7.4 mph 35 % 0.0 in 923.0 W/m2 CLR
14:37 33.9 °F 16.8 °F 1016.5 in ENE 14.8 mph 14.8 mph 36 % 0.0 in 912.0 W/m2 CLR
14:42 34.1 °F 16.9 °F 1016.5 in East 1.9 mph   36 % 0.0 in 912.0 W/m2 CLR
14:47 34.2 °F 17.4 °F 1016.5 in East 18.5 mph 18.5 mph 37 % 0.0 in 914.0 W/m2 CLR
14:52 34.1 °F 17.3 °F 1016.5 in NNE 11.1 mph 11.1 mph 37 % 0.0 in 900.0 W/m2 CLR
14:57 34.2 °F 17.4 °F 1016.5 in ENE 5.6 mph   37 % 0.0 in 902.0 W/m2 CLR
15:02 34.3 °F 17.5 °F 1016.5 in Calm     37 % 0.0 in 895.0 W/m2 CLR
15:07 34.6 °F 18.2 °F 1016.5 in ENE 16.7 mph 16.7 mph 38 % 0.0 in 895.0 W/m2 CLR
15:12 34.4 °F 17.2 °F 1016.5 in NE 17.7 mph 17.7 mph 36 % 0.0 in 889.0 W/m2 CLR
15:17 34.4 °F 17.7 °F 1016.1 in East 16.7 mph 16.7 mph 37 % 0.0 in 879.0 W/m2 CLR
15:22 34.3 °F 17.9 °F 1016.1 in ESE 22.2 mph 22.2 mph 38 % 0.0 in 872.0 W/m2 CLR
15:27 34.3 °F 17.6 °F 1016.1 in ENE 18.5 mph 18.5 mph 37 % 0.0 in 872.0 W/m2 CLR
15:32 34.6 °F 17.3 °F 1016.1 in ENE 18.5 mph 18.5 mph 36 % 0.0 in 865.0 W/m2 CLR
15:37 34.5 °F 17.7 °F 1016.1 in ENE 18.5 mph 18.5 mph 37 % 0.0 in 861.0 W/m2 CLR
15:42 34.7 °F 17.4 °F 1016.1 in SE 18.5 mph 18.5 mph 36 % 0.0 in 856.0 W/m2 CLR
15:47 34.5 °F 17.7 °F 1015.8 in ENE 22.2 mph 22.2 mph 37 % 0.0 in 844.0 W/m2 CLR
15:52 34.7 °F 17.8 °F 1015.8 in ENE 16.7 mph 16.7 mph 37 % 0.0 in 835.0 W/m2 CLR
15:57 34.9 °F 17.6 °F 1015.8 in ESE 13.0 mph 13.0 mph 36 % 0.0 in 830.0 W/m2 CLR
16:02 34.7 °F 17.8 °F 1015.8 in ESE 14.8 mph 14.8 mph 37 % 0.0 in 823.0 W/m2 CLR
16:07 34.7 °F 17.4 °F 1015.8 in ENE 18.5 mph 18.5 mph 36 % 0.0 in 810.0 W/m2 CLR
16:12 34.8 °F 17.6 °F 1015.8 in ENE 16.7 mph 16.7 mph 36 % 0.0 in 803.0 W/m2 CLR
16:17 35.1 °F 17.7 °F 1015.5 in NNE 18.5 mph 18.5 mph 36 % 0.0 in 789.0 W/m2 CLR
16:22 35.2 °F 17.9 °F 1015.5 in East 18.5 mph 18.5 mph 36 % 0.0 in 784.0 W/m2 CLR
16:27 34.8 °F 17.6 °F 1015.5 in NNE 13.0 mph 13.0 mph 36 % 0.0 in 759.0 W/m2 CLR
16:32 35.0 °F 18.1 °F 1015.5 in ESE 5.6 mph 5.6 mph 37 % 0.0 in 756.0 W/m2 CLR
16:37 35.2 °F 17.4 °F 1015.5 in SE 22.2 mph 22.2 mph 35 % 0.0 in 744.0 W/m2 CLR
16:42 35.3 °F 17.9 °F 1015.5 in East 24.1 mph 24.1 mph 36 % 0.0 in 733.0 W/m2 CLR
16:47 35.0 °F 17.7 °F 1015.5 in ESE 18.5 mph 18.5 mph 36 % 0.0 in 710.0 W/m2 CLR
16:52 34.9 °F 17.6 °F 1015.5 in ENE 24.1 mph 24.1 mph 36 % 0.0 in 708.0 W/m2 CLR
16:57 34.8 °F 17.5 °F 1015.1 in East 11.3 mph 11.3 mph 36 % 0.0 in 707.0 W/m2 CLR
17:02 34.8 °F 17.6 °F 1015.5 in ESE 7.4 mph 7.4 mph 36 % 0.0 in 693.0 W/m2 CLR
17:07 34.8 °F 18.0 °F 1015.1 in SE 24.1 mph 24.1 mph 37 % 0.0 in 673.0 W/m2 CLR
17:12 34.8 °F 18.0 °F 1015.5 in SSE 22.2 mph 22.2 mph 37 % 0.0 in 664.0 W/m2 CLR
17:17 34.7 °F 17.4 °F 1015.1 in ESE 18.5 mph 18.5 mph 36 % 0.0 in 657.0 W/m2 CLR
17:22 34.6 °F 17.3 °F 1015.1 in ESE 24.1 mph 24.1 mph 36 % 0.0 in 647.0 W/m2 CLR
17:27 34.4 °F 17.2 °F 1015.1 in SE 27.8 mph 27.8 mph 36 % 0.0 in 635.0 W/m2 CLR
17:32 34.3 °F 17.5 °F 1015.1 in SE 18.5 mph 18.5 mph 37 % 0.0 in 621.0 W/m2 CLR
17:37 34.3 °F 17.6 °F 1015.1 in SSE 13.0 mph 13.0 mph 37 % 0.0 in 606.0 W/m2 CLR
17:42 34.4 °F 17.2 °F 1015.1 in ESE 16.7 mph 16.7 mph 36 % 0.0 in 596.0 W/m2 CLR
17:47 34.2 °F 16.9 °F 1015.1 in SE 22.2 mph 22.2 mph 36 % 0.0 in 587.0 W/m2 CLR
17:52 34.0 °F 16.8 °F 1015.1 in SE 22.2 mph 22.2 mph 36 % 0.0 in 570.0 W/m2 CLR
17:57 34.1 °F 16.5 °F 1015.1 in ESE 22.2 mph 22.2 mph 35 % 0.0 in 555.0 W/m2 CLR
18:02 34.0 °F 16.8 °F 1015.1 in East 24.1 mph 24.1 mph 36 % 0.0 in 545.0 W/m2 CLR
18:07 34.0 °F 16.4 °F 1015.1 in SE 25.7 mph 25.7 mph 35 % 0.0 in 534.0 W/m2 CLR
18:12 33.7 °F 16.1 °F 1015.1 in SE 29.6 mph 29.6 mph 35 % 0.0 in 526.0 W/m2 CLR
18:17 33.6 °F 16.5 °F 1014.8 in SE 29.6 mph 29.6 mph 36 % 0.0 in 513.0 W/m2 CLR
18:22 33.6 °F 16.1 °F 1014.8 in SE 24.1 mph 24.1 mph 35 % 0.0 in 504.0 W/m2 CLR
18:27 33.7 °F 16.1 °F 1014.8 in SE 20.4 mph 20.4 mph 35 % 0.0 in 392.0 W/m2 CLR
18:32 33.6 °F 16.1 °F 1014.8 in SSE 27.8 mph 27.8 mph 35 % 0.0 in 295.0 W/m2 CLR
18:37 33.4 °F 15.9 °F 1014.8 in ESE 24.1 mph 24.1 mph 35 % 0.0 in 308.0 W/m2 CLR
18:42 33.3 °F 15.8 °F 1014.8 in ESE 25.9 mph 25.9 mph 35 % 0.0 in 352.0 W/m2 CLR
18:47 33.4 °F 15.4 °F 1014.8 in SE 24.1 mph 24.1 mph 34 % 0.0 in 385.0 W/m2 CLR
18:52 33.3 °F 15.3 °F 1014.8 in East 22.2 mph 22.2 mph 34 % 0.0 in 396.0 W/m2 CLR
18:57 33.3 °F 14.9 °F 1014.8 in ESE 27.8 mph 27.8 mph 33 % 0.0 in 396.0 W/m2 CLR
19:02 33.3 °F 14.8 °F 1014.8 in SE 18.5 mph 18.5 mph 33 % 0.0 in 318.0 W/m2 CLR
19:07 33.3 °F 14.4 °F 1015.1 in East 24.1 mph 24.1 mph 32 % 0.0 in 323.0 W/m2 CLR
19:12 33.2 °F 14.8 °F 1014.8 in SE 20.4 mph 20.4 mph 33 % 0.0 in 262.0 W/m2 CLR
19:17 33.2 °F 14.3 °F 1014.8 in ESE 20.4 mph 20.4 mph 32 % 0.0 in 329.0 W/m2 CLR
19:22 33.2 °F 14.3 °F 1014.8 in ESE 20.4 mph 20.4 mph 32 % 0.0 in 301.0 W/m2 CLR
19:28 33.1 °F 14.2 °F 1014.8 in SE 20.4 mph 20.4 mph 32 % 0.0 in 227.0 W/m2 CLR
19:33 33.0 °F 14.6 °F 1014.8 in SE 18.5 mph 18.5 mph 33 % 0.0 in 206.0 W/m2 CLR
19:38 33.0 °F 14.6 °F 1014.8 in SE 16.7 mph 16.7 mph 33 % 0.0 in 174.0 W/m2 CLR
19:43 33.0 °F 14.6 °F 1015.1 in SE 20.4 mph 20.4 mph 33 % 0.0 in 195.0 W/m2 CLR
19:48 32.9 °F 14.6 °F 1014.8 in SSE 22.2 mph 22.2 mph 33 % 0.0 in 174.0 W/m2 CLR
19:53 32.8 °F 14.4 °F 1015.1 in SE 25.9 mph 25.9 mph 33 % 0.0 in 146.0 W/m2 CLR
19:58 32.7 °F 14.3 °F 1015.1 in SSE 16.7 mph 16.7 mph 33 % 0.0 in 141.0 W/m2 CLR
20:03 32.6 °F 14.7 °F 1015.1 in SSE 20.4 mph 20.4 mph 34 % 0.0 in 111.0 W/m2 CLR
20:08 32.5 °F 14.6 °F 1015.1 in SSE 16.7 mph 16.7 mph 34 % 0.0 in 65.0 W/m2 CLR
20:13 32.3 °F 14.4 °F 1015.1 in SE 18.5 mph 18.5 mph 34 % 0.0 in 63.0 W/m2 FEW
20:18 32.1 °F 15.2 °F 1015.1 in SE 20.4 mph 20.4 mph 36 % 0.0 in 54.0 W/m2 SCT
20:23 31.8 °F 15.3 °F 1015.1 in SSE 14.8 mph 14.8 mph 37 % 0.0 in 53.0 W/m2 SCT
20:28 31.7 °F 15.6 °F 1015.1 in SE 22.2 mph 22.2 mph 38 % 0.0 in 49.0 W/m2 SCT
20:33 31.5 °F 15.9 °F 1015.1 in South 14.8 mph 14.8 mph 39 % 0.0 in 46.0 W/m2 SCT
20:38 31.4 °F 15.8 °F 1015.1 in SE 9.7 mph 9.7 mph 39 % 0.0 in 47.0 W/m2 SCT
20:43 31.3 °F 16.1 °F 1015.1 in SSE 13.0 mph 13.2 mph 40 % 0.0 in 42.0 W/m2 BKN
20:48 31.1 °F 15.9 °F 1015.1 in SSE 8.0 mph 8.0 mph 40 % 0.0 in 35.0 W/m2 BKN
20:53 30.9 °F 15.8 °F 1015.1 in SE 9.7 mph 9.7 mph 40 % 0.0 in 35.0 W/m2 BKN
20:58 30.7 °F 15.9 °F 1015.5 in SE 13.0 mph 13.0 mph 41 % 0.0 in 28.0 W/m2 BKN
21:03 30.5 °F 15.8 °F 1015.5 in SSE 14.8 mph 14.8 mph 41 % 0.0 in 23.0 W/m2 BKN
21:08 30.4 °F 16.1 °F 1015.5 in SE 9.7 mph 9.7 mph 42 % 0.0 in 19.0 W/m2 BKN
21:13 30.2 °F 15.9 °F 1015.5 in SSE 12.9 mph 12.9 mph 42 % 0.0 in 16.0 W/m2 BKN
21:18 30.0 °F 16.1 °F 1015.5 in SE 18.5 mph 18.5 mph 43 % 0.0 in 14.0 W/m2 BKN
21:23 29.8 °F 15.9 °F 1015.5 in SSE 9.3 mph 9.3 mph 43 % 0.0 in 9.0 W/m2 BKN
21:28 29.6 °F 16.1 °F 1015.5 in SE 13.0 mph 13.0 mph 44 % 0.0 in 5.0 W/m2 OVC
21:33 29.4 °F 16.3 °F 1015.5 in SE 11.3 mph 11.3 mph 45 % 0.0 in 0.0 W/m2 OVC
21:38 29.3 °F 16.4 °F 1015.5 in SE 5.6 mph 5.6 mph 46 % 0.0 in 0.0 W/m2 OVC
21:43 29.1 °F 16.3 °F 1015.5 in SSE 13.0 mph 13.0 mph 46 % 0.0 in 0.0 W/m2 CLR
21:48 28.9 °F 16.5 °F 1015.8 in ESE 5.6 mph 7.1 mph 47 % 0.0 in 0.0 W/m2 CLR
21:53 28.8 °F 16.4 °F 1015.8 in SE 11.3 mph 11.3 mph 47 % 0.0 in 0.0 W/m2 CLR
21:58 28.7 °F 16.3 °F 1015.8 in SSE 9.3 mph 9.3 mph 47 % 0.0 in 0.0 W/m2 CLR
22:03 28.6 °F 16.5 °F 1015.8 in SE 9.3 mph 9.3 mph 48 % 0.0 in 0.0 W/m2 CLR
22:08 28.4 °F 16.4 °F 1015.8 in Calm     48 % 0.0 in 0.0 W/m2 CLR
22:13 28.3 °F 16.6 °F 1015.8 in SE 9.7 mph 9.7 mph 49 % 0.0 in 0.0 W/m2 CLR
22:18 28.2 °F 16.4 °F 1015.8 in SE 14.8 mph 14.8 mph 49 % 0.0 in 0.0 W/m2 CLR
22:23 28.0 °F 16.6 °F 1016.1 in SE 13.0 mph 13.0 mph 50 % 0.0 in 0.0 W/m2 CLR
22:28 27.9 °F 16.5 °F 1016.1 in SE 13.0 mph 13.0 mph 50 % 0.0 in 0.0 W/m2 CLR
22:33 27.8 °F 16.8 °F 1016.1 in SSE 11.1 mph 11.1 mph 51 % 0.0 in 0.0 W/m2 CLR
22:38 27.7 °F 16.7 °F 1016.1 in SE 3.7 mph   51 % 0.0 in 0.0 W/m2 CLR
22:43 27.7 °F 16.6 °F 1016.1 in Calm     51 % 0.0 in 0.0 W/m2 CLR
22:48 27.6 °F 16.6 °F 1016.1 in Calm     51 % 0.0 in 0.0 W/m2 CLR
22:53 27.6 °F 16.5 °F 1016.1 in Calm     51 % 0.0 in 0.0 W/m2 CLR
22:54 27.5 °F 16.4 °F 1016.1 in Calm     51 % 0.0 in 0.0 W/m2 CLR
22:59 27.4 °F 16.4 °F 1016.1 in Calm     51 % 0.0 in 0.0 W/m2 CLR
23:04 27.3 °F 16.3 °F 1016.1 in Calm     51 % 0.0 in 0.0 W/m2 CLR
23:09 27.2 °F 16.5 °F 1016.1 in Calm     52 % 0.0 in 0.0 W/m2 CLR
23:14 27.1 °F 16.4 °F 1016.1 in Calm     52 % 0.0 in 0.0 W/m2 CLR
23:19 27.0 °F 16.6 °F 1016.1 in Calm     53 % 0.0 in 0.0 W/m2 CLR
23:24 26.8 °F 16.4 °F 1016.1 in Calm     53 % 0.0 in 0.0 W/m2 CLR
23:29 26.7 °F 16.3 °F 1016.1 in Calm     53 % 0.0 in 0.0 W/m2 CLR
23:34 26.6 °F 16.6 °F 1016.1 in Calm     54 % 0.0 in 0.0 W/m2 CLR
23:39 26.5 °F 16.4 °F 1016.5 in Calm     54 % 0.0 in 0.0 W/m2 CLR
23:44 26.3 °F 16.8 °F 1016.5 in Calm     56 % 0.0 in 0.0 W/m2 CLR
23:49 25.9 °F 17.1 °F 1016.5 in Calm     58 % 0.0 in 0.0 W/m2 CLR
23:54 25.7 °F 17.3 °F 1016.5 in Calm     60 % 0.0 in 0.0 W/m2 CLR
23:59 25.4 °F 17.6 °F 1016.5 in East 5.6 mph 5.6 mph 62 % 0.0 in 0.0 W/m2 CLR
Lo Temps de Massalio
Compliments of Weather Underground - 1.25 mb